Weather at Fort Lauderdale Hollywood International Airport

Public forecast

Using degrees Fahrenheit for public forecast. Weather courtesy of forecast.io.

Current aviation weather report (METAR) for Fort Lauderdale Hollywood International Airport

Retrieved 2021/05/11 18:53 UTC (1 hour ago):

KFLL 111853Z 14013KT 10SM FEW035 FEW070 31/23 A3004 RMK AO2 SLP171 T03110228

Aviation forecast (TAF) for Fort Lauderdale Hollywood International Airport

Retrieved 2021/05/11 18:39 UTC (1 hour ago):

TAF KFLL 111733Z 1118/1224 13012KT P6SM SCT025 BKN050 FM121200 VRB03KT P6SM FEW015 SCT200 FM121800 13010KT P6SM FEW030 SCT100 FM122200 13010KT P6SM FEW025 SCT200